EDT,Max TemperatureF,Mean TemperatureF,Min TemperatureF,Max Dew PointF,MeanDew PointF,Min DewpointF,Max Humidity, Mean Humidity, Min Humidity, Max Sea Level PressureIn, Mean Sea Level PressureIn, Min Sea Level PressureIn, Max VisibilityMiles, Mean VisibilityMiles, Min VisibilityMiles, Max Wind SpeedMPH, Mean Wind SpeedMPH, Max Gust SpeedMPH,PrecipitationIn, CloudCover, Events, WindDirDegrees
2013-6-1,91,81,70,67,64,62,79,60,41,30.06,29.99,29.91,10,10,10,20,8,26,0.00,0,,182
2013-6-2,83,78,72,70,65,62,76,66,55,29.90,29.87,29.85,10,10,10,25,10,33,T,4,Thunderstorm,179
2013-6-3,78,72,65,68,61,51,100,77,54,30.01,29.91,29.87,10,9,3,15,6,28,0.13,4,Rain,297
2013-6-4,75,63,50,51,44,39,69,51,33,30.17,30.11,30.02,10,10,10,16,7,22,0.00,0,,329
2013-6-5,78,66,54,55,51,47,83,61,38,30.21,30.13,30.06,10,10,10,16,6,23,0.00,3,,125
2013-6-6,68,64,60,63,59,46,100,76,52,30.07,29.98,29.87,10,6,2,15,8,20,0.56,7,Rain,140
2013-6-7,68,65,62,66,63,61,100,94,87,29.88,29.78,29.68,10,6,2,13,5,15,0.19,8,Rain,349
2013-6-8,77,70,63,64,58,56,93,74,54,30.14,29.96,29.78,10,10,7,15,7,17,0.00,3,,306
2013-6-9,80,70,60,67,61,56,97,76,54,30.23,30.16,30.12,10,8,3,10,4,15,0.00,6,,135
2013-6-10,79,74,68,72,69,63,97,85,73,30.12,29.92,29.78,10,7,1,16,6,22,0.51,7,Rain-Thunderstorm,172
2013-6-11,79,72,64,67,64,61,100,79,58,29.88,29.83,29.80,10,8,1,23,8,30,0.01,5,Rain,233
2013-6-12,86,77,68,66,64,61,84,65,45,29.90,29.87,29.82,10,9,7,14,7,20,0.00,3,,286
2013-6-13,82,75,68,68,64,54,90,74,58,29.81,29.64,29.52,10,8,0,35,9,43,0.46,5,Rain-Thunderstorm,237
2013-6-14,79,70,61,56,53,50,72,56,39,30.02,29.88,29.68,10,10,10,20,11,25,0.00,4,,332
2013-6-15,80,70,59,58,52,44,84,57,30,30.12,30.06,30.02,10,10,10,16,6,23,0.00,0,,298
2013-6-16,79,71,63,69,59,51,73,65,57,30.06,29.98,29.91,10,10,10,16,6,22,0.02,4,Rain,218
2013-6-17,84,76,68,68,63,59,78,65,51,29.99,29.95,29.91,10,10,10,14,5,18,0.01,2,,237
2013-6-18,76,72,67,70,66,62,93,84,74,29.93,29.89,29.83,10,8,2,10,2,15,0.01,3,Rain-Thunderstorm,268
2013-6-19,78,70,61,63,58,51,93,67,40,30.18,30.03,29.92,10,9,3,13,6,17,0.01,5,Rain,16
2013-6-20,79,69,58,63,60,56,93,73,52,30.28,30.25,30.19,10,9,6,16,6,22,0.00,2,,169
2013-6-21,82,73,63,59,54,47,67,55,43,30.31,30.28,30.25,10,10,10,14,7,18,0.00,1,,163
2013-6-22,86,75,64,66,61,50,87,67,46,30.27,30.22,30.13,10,10,10,14,5,20,0.00,0,,177
2013-6-23,86,77,67,70,67,62,93,71,48,30.21,30.16,30.09,10,10,10,10,4,14,0.00,1,,165
2013-6-24,90,81,71,69,66,59,84,63,41,30.16,30.11,30.06,10,10,10,23,4,29,T,1,Rain,198
2013-6-25,92,81,69,69,66,63,97,69,41,30.06,30.01,29.90,10,10,9,16,7,21,0.00,2,Rain-Thunderstorm,246
2013-6-26,87,77,66,70,66,63,93,72,50,29.98,29.90,29.84,10,10,9,16,6,23,0.00,1,Thunderstorm,228
2013-6-27,85,77,68,72,69,66,97,79,61,29.86,29.71,29.63,10,8,1,20,5,25,0.30,5,Rain-Thunderstorm,215
2013-6-28,84,77,69,70,66,63,84,70,55,29.63,29.57,29.50,10,10,5,25,5,31,0.04,3,Rain-Thunderstorm,241
2013-6-29,85,76,66,67,62,57,87,64,40,29.74,29.64,29.56,10,9,2,9,5,,0.00,2,Rain,244
2013-6-30,87,76,65,72,67,64,100,78,55,29.88,29.79,29.72,10,5,0,12,3,25,0.01,4,Fog-Rain,331